createdAt,value
2017-05-10T00:00:58.645Z,1009.84
2017-05-10T00:02:09.949Z,1009.83
2017-05-10T00:03:20.947Z,1009.86
2017-05-10T00:04:31.959Z,1009.85
2017-05-10T00:05:42.970Z,1009.8
2017-05-10T00:06:54.176Z,1009.85
2017-05-10T00:08:05.187Z,1009.81
2017-05-10T00:09:16.201Z,1009.79
2017-05-10T00:10:27.212Z,1009.75
2017-05-10T00:11:38.415Z,1009.72
2017-05-10T00:12:49.677Z,1009.65
2017-05-10T00:14:00.676Z,1009.66
2017-05-10T00:15:11.679Z,1009.65
2017-05-10T00:16:22.674Z,1009.6
2017-05-10T00:17:34.084Z,1009.59
2017-05-10T00:18:45.093Z,1009.59
2017-05-10T00:19:56.100Z,1009.58
2017-05-10T00:21:07.306Z,1009.61
2017-05-10T00:22:18.330Z,1009.63
2017-05-10T00:23:29.433Z,1009.65
2017-05-10T00:24:40.442Z,1009.62
2017-05-10T00:25:51.444Z,1009.57
2017-05-10T00:27:02.434Z,1009.59
2017-05-10T00:28:13.423Z,1009.58
2017-05-10T00:29:24.427Z,1009.56
2017-05-10T00:30:35.466Z,1009.54
2017-05-10T00:31:46.677Z,1009.54
2017-05-10T00:32:57.693Z,1009.5
2017-05-10T00:34:08.751Z,1009.5
2017-05-10T00:35:19.957Z,1009.49
2017-05-10T00:36:30.972Z,1009.45
2017-05-10T00:37:41.976Z,1009.44
2017-05-10T00:38:53.000Z,1009.42
2017-05-10T00:40:03.997Z,1009.42
2017-05-10T00:41:15.032Z,1009.41
2017-05-10T00:42:26.031Z,1009.4
2017-05-10T00:43:37.029Z,1009.38
2017-05-10T00:44:48.086Z,1009.35
2017-05-10T00:45:59.083Z,1009.36
2017-05-10T00:47:10.092Z,1009.34
2017-05-10T00:48:21.090Z,1009.3
2017-05-10T00:49:32.295Z,1009.33
2017-05-10T00:50:43.290Z,1009.32
2017-05-10T00:51:54.293Z,1009.33
2017-05-10T00:53:05.297Z,1009.34
2017-05-10T00:54:16.317Z,1009.28
2017-05-10T00:55:27.317Z,1009.33
2017-05-10T00:56:38.329Z,1009.32
2017-05-10T00:57:49.335Z,1009.32
2017-05-10T00:59:00.592Z,1009.32
2017-05-10T01:00:11.589Z,1009.29
2017-05-10T01:01:22.641Z,1009.24
2017-05-10T01:02:33.842Z,1009.23
2017-05-10T01:03:44.848Z,1009.28
2017-05-10T01:04:55.863Z,1009.24
2017-05-10T01:06:06.870Z,1009.24
2017-05-10T01:07:17.860Z,1009.22
2017-05-10T01:08:28.864Z,1009.22
2017-05-10T01:09:39.871Z,1009.22
2017-05-10T01:10:50.927Z,1009.15
2017-05-10T01:12:02.135Z,1009.14
2017-05-10T01:13:13.141Z,1009.1
2017-05-10T01:14:24.343Z,1009.07
2017-05-10T01:15:35.346Z,1009.07
2017-05-10T01:16:46.351Z,1009.09
2017-05-10T01:17:57.351Z,1009.05
2017-05-10T01:19:08.369Z,1009.07
2017-05-10T01:20:19.375Z,1008.99
2017-05-10T01:21:30.440Z,1009.06
2017-05-10T01:22:41.437Z,1009.06
2017-05-10T01:23:52.662Z,1009.09
2017-05-10T01:25:03.865Z,1009.05
2017-05-10T01:26:14.876Z,1009.05
2017-05-10T01:27:25.880Z,1009.01
2017-05-10T01:28:36.885Z,1008.97
2017-05-10T01:29:47.883Z,1008.99
2017-05-10T01:30:58.887Z,1009.02
2017-05-10T01:32:10.138Z,1009
2017-05-10T01:33:21.140Z,1008.97
2017-05-10T01:34:32.365Z,1008.97
2017-05-10T01:35:43.359Z,1008.94
2017-05-10T01:36:54.376Z,1008.94
2017-05-10T01:38:05.406Z,1008.95
2017-05-10T01:39:16.601Z,1008.91
2017-05-10T01:40:27.618Z,1008.89
2017-05-10T01:41:38.616Z,1008.85
2017-05-10T01:42:49.664Z,1008.85
2017-05-10T01:44:00.723Z,1008.84
2017-05-10T01:45:11.936Z,1008.82
2017-05-10T01:46:22.935Z,1008.8
2017-05-10T01:47:34.147Z,1008.8
2017-05-10T01:48:45.220Z,1008.77
2017-05-10T01:49:56.224Z,1008.74
2017-05-10T01:51:07.427Z,1008.7
2017-05-10T01:52:18.431Z,1008.72
2017-05-10T01:53:29.428Z,1008.71
2017-05-10T01:54:40.431Z,1008.72
2017-05-10T01:55:51.433Z,1008.68
2017-05-10T01:57:02.438Z,1008.71
2017-05-10T01:58:13.457Z,1008.68
2017-05-10T01:59:24.672Z,1008.67
2017-05-10T02:00:35.893Z,1008.68
2017-05-10T02:01:46.898Z,1008.65
2017-05-10T02:02:57.896Z,1008.65
2017-05-10T02:04:08.907Z,1008.63
2017-05-10T02:05:19.916Z,1008.6
2017-05-10T02:06:31.110Z,1008.6
2017-05-10T02:07:42.112Z,1008.61
2017-05-10T02:08:53.324Z,1008.55
2017-05-10T02:10:04.381Z,1008.57
2017-05-10T02:11:15.585Z,1008.54
2017-05-10T02:12:26.987Z,1008.54
2017-05-10T02:13:37.988Z,1008.55
2017-05-10T02:14:49.197Z,1008.53
2017-05-10T02:16:00.211Z,1008.54
2017-05-10T02:17:11.217Z,1008.53
2017-05-10T02:18:22.218Z,1008.53
2017-05-10T02:19:33.234Z,1008.54
2017-05-10T02:20:44.285Z,1008.51
2017-05-10T02:21:55.300Z,1008.49
2017-05-10T02:23:06.495Z,1008.53
2017-05-10T02:24:17.500Z,1008.51
2017-05-10T02:25:28.500Z,1008.5
2017-05-10T02:26:39.504Z,1008.45
2017-05-10T02:27:50.504Z,1008.43
2017-05-10T02:29:01.503Z,1008.41
2017-05-10T02:30:12.511Z,1008.38
2017-05-10T02:31:23.561Z,1008.35
2017-05-10T02:32:34.569Z,1008.33
2017-05-10T02:33:45.566Z,1008.3
2017-05-10T02:34:56.560Z,1008.32
2017-05-10T02:36:07.551Z,1008.33
2017-05-10T02:37:18.560Z,1008.27
2017-05-10T02:38:29.761Z,1008.28
2017-05-10T02:39:40.973Z,1008.28
2017-05-10T02:40:51.985Z,1008.24
2017-05-10T02:42:03.048Z,1008.2
2017-05-10T02:43:14.048Z,1008.2
2017-05-10T02:44:25.065Z,1008.19
2017-05-10T02:45:36.270Z,1008.2
2017-05-10T02:46:47.269Z,1008.17
2017-05-10T02:47:58.476Z,1008.11
2017-05-10T02:49:09.882Z,1008.17
2017-05-10T02:50:20.891Z,1008.16
2017-05-10T02:51:31.904Z,1008.15
2017-05-10T02:52:42.953Z,1008.16
2017-05-10T02:53:53.963Z,1008.13
2017-05-10T02:55:05.183Z,1008.16
2017-05-10T02:56:16.194Z,1008.11
2017-05-10T02:57:27.191Z,1008.08
2017-05-10T02:58:38.391Z,1008.09
2017-05-10T02:59:49.600Z,1008.1
2017-05-10T03:01:00.599Z,1008.07
2017-05-10T03:02:11.594Z,1008.07
2017-05-10T03:03:22.591Z,1008.05
2017-05-10T03:04:33.605Z,1008.05
2017-05-10T03:05:44.636Z,1008.03
2017-05-10T03:06:55.839Z,1007.98
2017-05-10T03:08:06.845Z,1007.94
2017-05-10T03:09:17.880Z,1008
2017-05-10T03:10:28.947Z,1007.98
2017-05-10T03:11:39.970Z,1007.93
2017-05-10T03:12:51.174Z,1007.91
2017-05-10T03:14:02.359Z,1007.94
2017-05-10T03:15:13.364Z,1007.93
2017-05-10T03:16:24.361Z,1007.84
2017-05-10T03:17:35.367Z,1007.85
2017-05-10T03:18:46.592Z,1007.86
2017-05-10T03:19:57.649Z,1007.84
2017-05-10T03:21:09.053Z,1007.79
2017-05-10T03:22:20.057Z,1007.79
2017-05-10T03:23:31.259Z,1007.79
2017-05-10T03:24:42.250Z,1007.8
2017-05-10T03:25:53.465Z,1007.77
2017-05-10T03:27:04.673Z,1007.82
2017-05-10T03:28:15.683Z,1007.78
2017-05-10T03:29:26.896Z,1007.78
2017-05-10T03:30:37.939Z,1007.76
2017-05-10T03:31:49.159Z,1007.8
2017-05-10T03:33:00.160Z,1007.75
2017-05-10T03:34:11.197Z,1007.75
2017-05-10T03:35:22.200Z,1007.76
2017-05-10T03:36:33.190Z,1007.72
2017-05-10T03:37:44.391Z,1007.73
2017-05-10T03:38:55.420Z,1007.74
2017-05-10T03:40:06.437Z,1007.71
2017-05-10T03:41:17.482Z,1007.71
2017-05-10T03:42:28.674Z,1007.71
2017-05-10T03:43:39.679Z,1007.7
2017-05-10T03:44:50.887Z,1007.71
2017-05-10T03:46:01.933Z,1007.66
2017-05-10T03:47:12.937Z,1007.66
2017-05-10T03:48:23.945Z,1007.68
2017-05-10T03:49:35.152Z,1007.66
2017-05-10T03:50:46.365Z,1007.65
2017-05-10T03:51:57.454Z,1007.62
2017-05-10T03:53:08.455Z,1007.62
2017-05-10T03:54:19.665Z,1007.59
2017-05-10T03:55:30.924Z,1007.61
2017-05-10T03:56:41.944Z,1007.57
2017-05-10T03:57:53.007Z,1007.64
2017-05-10T03:59:04.013Z,1007.6
2017-05-10T04:00:15.013Z,1007.58
2017-05-10T04:01:26.219Z,1007.6
2017-05-10T04:02:37.223Z,1007.54
2017-05-10T04:03:48.419Z,1007.54
2017-05-10T04:04:59.627Z,1007.52
2017-05-10T04:06:10.644Z,1007.51
2017-05-10T04:07:21.639Z,1007.52
2017-05-10T04:08:32.629Z,1007.55
2017-05-10T04:09:43.634Z,1007.56
2017-05-10T04:10:54.647Z,1007.55
2017-05-10T04:12:05.644Z,1007.57
2017-05-10T04:13:16.660Z,1007.53
2017-05-10T04:14:27.864Z,1007.54
2017-05-10T04:15:38.913Z,1007.51
2017-05-10T04:16:49.911Z,1007.48
2017-05-10T04:18:00.913Z,1007.46
2017-05-10T04:19:11.962Z,1007.54
2017-05-10T04:20:22.969Z,1007.51
2017-05-10T04:21:33.978Z,1007.52
2017-05-10T04:22:45.014Z,1007.51
2017-05-10T04:23:56.023Z,1007.56
2017-05-10T04:25:07.083Z,1007.53
2017-05-10T04:26:18.291Z,1007.54
2017-05-10T04:27:29.302Z,1007.52
2017-05-10T04:28:40.297Z,1007.53
2017-05-10T04:29:51.697Z,1007.56
2017-05-10T04:31:02.895Z,1007.54
2017-05-10T04:32:14.089Z,1007.58
2017-05-10T04:33:25.096Z,1007.58
2017-05-10T04:34:36.096Z,1007.59
2017-05-10T04:35:47.141Z,1007.55
2017-05-10T04:36:58.137Z,1007.55
2017-05-10T04:38:09.128Z,1007.57
2017-05-10T04:39:20.126Z,1007.59
2017-05-10T04:40:31.135Z,1007.64
2017-05-10T04:41:42.134Z,1007.62
2017-05-10T04:42:53.168Z,1007.62
2017-05-10T04:44:04.179Z,1007.57
2017-05-10T04:45:15.379Z,1007.58
2017-05-10T04:46:26.632Z,1007.61
2017-05-10T04:47:37.659Z,1007.6
2017-05-10T04:48:48.668Z,1007.65
2017-05-10T04:49:59.878Z,1007.69
2017-05-10T04:51:10.878Z,1007.65
2017-05-10T04:52:21.884Z,1007.71
2017-05-10T04:53:32.883Z,1007.7
2017-05-10T04:54:43.889Z,1007.69
2017-05-10T04:55:54.892Z,1007.68
2017-05-10T04:57:05.952Z,1007.71
2017-05-10T04:58:17.166Z,1007.76
2017-05-10T04:59:28.177Z,1007.73
2017-05-10T05:00:39.193Z,1007.75
2017-05-10T05:01:50.190Z,1007.7
2017-05-10T05:03:01.191Z,1007.75
2017-05-10T05:04:12.395Z,1007.8
2017-05-10T05:05:23.403Z,1007.73
2017-05-10T05:06:34.406Z,1007.78
2017-05-10T05:07:45.451Z,1007.74
2017-05-10T05:08:56.458Z,1007.77
2017-05-10T05:10:07.673Z,1007.76
2017-05-10T05:11:18.692Z,1007.76
2017-05-10T05:12:29.694Z,1007.83
2017-05-10T05:13:40.749Z,1007.83
2017-05-10T05:14:51.757Z,1007.9
2017-05-10T05:16:02.755Z,1007.91
2017-05-10T05:17:13.737Z,1007.9
2017-05-10T05:18:24.741Z,1007.87
2017-05-10T05:19:35.750Z,1007.84
2017-05-10T05:20:46.762Z,1007.84
2017-05-10T05:21:57.767Z,1007.85
2017-05-10T05:23:08.771Z,1007.85
2017-05-10T05:24:19.784Z,1007.87
2017-05-10T05:25:30.847Z,1007.81
2017-05-10T05:26:41.836Z,1007.82
2017-05-10T05:27:52.835Z,1007.82
2017-05-10T05:29:03.854Z,1007.79
2017-05-10T05:30:14.852Z,1007.88
2017-05-10T05:31:26.249Z,1007.88
2017-05-10T05:32:37.457Z,1007.85
2017-05-10T05:33:48.466Z,1007.87
2017-05-10T05:34:59.523Z,1007.9
2017-05-10T05:36:10.538Z,1007.89
2017-05-10T05:37:21.552Z,1007.87
2017-05-10T05:38:32.756Z,1007.88
2017-05-10T05:39:44.164Z,1007.87
2017-05-10T05:40:55.164Z,1007.81
2017-05-10T05:42:06.221Z,1007.84
2017-05-10T05:43:17.230Z,1007.82
2017-05-10T05:44:28.238Z,1007.83
2017-05-10T05:45:39.250Z,1007.86
2017-05-10T05:46:50.456Z,1007.82
2017-05-10T05:48:01.680Z,1007.89
2017-05-10T05:49:12.671Z,1007.88
2017-05-10T05:50:23.667Z,1007.89
2017-05-10T05:51:34.661Z,1007.86
2017-05-10T05:52:45.650Z,1007.83
2017-05-10T05:53:56.656Z,1007.8
2017-05-10T05:55:07.713Z,1007.8
2017-05-10T05:56:18.922Z,1007.79
2017-05-10T05:57:29.922Z,1007.82
2017-05-10T05:58:41.134Z,1007.79
2017-05-10T05:59:52.345Z,1007.72
2017-05-10T06:01:03.563Z,1007.78
2017-05-10T06:02:14.574Z,1007.71
2017-05-10T06:03:25.577Z,1007.72
2017-05-10T06:04:36.796Z,1007.78
2017-05-10T06:05:47.859Z,1007.85
2017-05-10T06:06:58.864Z,1007.83
2017-05-10T06:08:09.869Z,1007.81
2017-05-10T06:09:21.283Z,1007.78
2017-05-10T06:10:32.292Z,1007.8
2017-05-10T06:11:43.297Z,1007.8
2017-05-10T06:12:54.304Z,1007.76
2017-05-10T06:14:05.324Z,1007.78
2017-05-10T06:15:16.332Z,1007.75
2017-05-10T06:16:27.379Z,1007.75
2017-05-10T06:17:38.394Z,1007.73
2017-05-10T06:18:49.427Z,1007.81
2017-05-10T06:20:00.451Z,1007.76
2017-05-10T06:21:11.469Z,1007.75
2017-05-10T06:22:22.885Z,1007.71
2017-05-10T06:23:34.143Z,1007.73
2017-05-10T06:24:45.152Z,1007.74
2017-05-10T06:25:56.162Z,1007.73
2017-05-10T06:27:07.367Z,1007.73
2017-05-10T06:28:18.373Z,1007.72
2017-05-10T06:29:29.585Z,1007.75
2017-05-10T06:30:40.609Z,1007.77
2017-05-10T06:31:51.832Z,1007.81
2017-05-10T06:33:02.897Z,1007.8
2017-05-10T06:34:13.916Z,1007.81
2017-05-10T06:35:25.146Z,1007.8
2017-05-10T06:36:36.360Z,1007.84
2017-05-10T06:37:47.373Z,1007.86
2017-05-10T06:38:58.603Z,1007.81
2017-05-10T06:40:09.635Z,1007.86
2017-05-10T06:41:20.646Z,1007.83
2017-05-10T06:42:31.653Z,1007.87
2017-05-10T06:43:42.714Z,1007.82
2017-05-10T06:44:53.950Z,1007.82
2017-05-10T06:46:04.966Z,1007.84
2017-05-10T06:47:15.985Z,1007.78
2017-05-10T06:48:27.025Z,1007.77
2017-05-10T06:49:38.247Z,1007.77
2017-05-10T06:50:49.252Z,1007.78
2017-05-10T06:52:00.276Z,1007.78
2017-05-10T06:53:11.492Z,1007.82
2017-05-10T06:54:22.549Z,1007.85
2017-05-10T06:55:33.577Z,1007.83
2017-05-10T06:56:44.596Z,1007.83
2017-05-10T06:57:56.025Z,1007.8
2017-05-10T06:59:07.050Z,1007.8
2017-05-10T07:00:18.068Z,1007.82
2017-05-10T07:01:29.087Z,1007.78
2017-05-10T07:02:40.105Z,1007.74
2017-05-10T07:03:51.336Z,1007.74
2017-05-10T07:05:02.412Z,1007.79
2017-05-10T07:06:13.432Z,1007.84
2017-05-10T07:07:24.473Z,1007.81
2017-05-10T07:08:35.699Z,1007.79
2017-05-10T07:09:46.725Z,1007.8
2017-05-10T07:10:57.758Z,1007.78
2017-05-10T07:12:08.777Z,1007.82
2017-05-10T07:13:19.803Z,1007.86
2017-05-10T07:14:30.832Z,1007.82
2017-05-10T07:15:41.855Z,1007.77
2017-05-10T07:16:52.892Z,1007.8
2017-05-10T07:18:03.918Z,1007.88
2017-05-10T07:19:14.930Z,1007.87
2017-05-10T07:20:26.364Z,1007.92
2017-05-10T07:21:37.420Z,1007.92
2017-05-10T07:22:48.635Z,1007.92
2017-05-10T07:23:59.666Z,1007.92
2017-05-10T07:25:10.900Z,1007.85
2017-05-10T07:26:22.321Z,1007.81
2017-05-10T07:27:33.384Z,1007.88
2017-05-10T07:28:44.404Z,1007.86
2017-05-10T07:29:55.421Z,1007.9
2017-05-10T07:31:06.650Z,1007.89
2017-05-10T07:32:17.711Z,1007.93
2017-05-10T07:33:28.727Z,1007.98
2017-05-10T07:34:39.747Z,1008.01
2017-05-10T07:35:50.819Z,1007.94
2017-05-10T07:37:02.108Z,1007.96
2017-05-10T07:38:13.132Z,1008.03
2017-05-10T07:39:24.166Z,1008.07
2017-05-10T07:40:35.188Z,1008.07
2017-05-10T07:41:46.206Z,1008.05
2017-05-10T07:42:57.212Z,1008.06
2017-05-10T07:44:08.239Z,1008.04
2017-05-10T07:45:19.253Z,1008.1
2017-05-10T07:46:30.265Z,1008.14
2017-05-10T07:47:41.341Z,1008.2
2017-05-10T07:48:52.379Z,1008.26
2017-05-10T07:50:03.414Z,1008.37
2017-05-10T07:51:14.631Z,1008.31
2017-05-10T07:52:26.062Z,1008.21
2017-05-10T07:53:37.078Z,1008.27
2017-05-10T07:54:48.291Z,1008.3
2017-05-10T07:55:59.717Z,1008.32
2017-05-10T07:57:10.741Z,1008.51
2017-05-10T07:58:22.010Z,1008.47
2017-05-10T07:59:33.034Z,1008.57
2017-05-10T08:00:44.058Z,1008.48
2017-05-10T08:01:55.077Z,1008.3
2017-05-10T08:03:06.142Z,1008.1
2017-05-10T08:04:17.371Z,1008.06
2017-05-10T08:05:28.393Z,1008.05
2017-05-10T08:06:39.412Z,1007.97
2017-05-10T08:07:50.438Z,1008.01
2017-05-10T08:09:01.522Z,1007.98
2017-05-10T08:10:12.540Z,1008.02
2017-05-10T08:11:23.565Z,1008.06
2017-05-10T08:12:34.988Z,1008.03
2017-05-10T08:13:46.015Z,1008.09
2017-05-10T08:14:57.044Z,1008.12
2017-05-10T08:16:08.061Z,1008.04
2017-05-10T08:17:19.085Z,1007.92
2017-05-10T08:18:30.116Z,1007.84
2017-05-10T08:19:41.336Z,1007.9
2017-05-10T08:20:52.366Z,1007.95
2017-05-10T08:22:03.393Z,1007.97
2017-05-10T08:23:14.621Z,1007.99
2017-05-10T08:24:25.660Z,1008
2017-05-10T08:25:36.688Z,1007.94
2017-05-10T08:26:47.926Z,1008.01
2017-05-10T08:27:58.948Z,1008.07
2017-05-10T08:29:10.174Z,1008.01
2017-05-10T08:30:21.401Z,1008.05
2017-05-10T08:31:32.474Z,1008.13
2017-05-10T08:32:43.498Z,1007.79
2017-05-10T08:33:54.520Z,1007.66
2017-05-10T08:35:05.545Z,1007.6
2017-05-10T08:36:17.031Z,1007.68
2017-05-10T08:37:28.254Z,1007.76
2017-05-10T08:38:39.291Z,1007.7
2017-05-10T08:39:50.517Z,1007.67
2017-05-10T08:41:01.802Z,1007.8
2017-05-10T08:42:13.026Z,1007.73
2017-05-10T08:43:24.086Z,1007.78
2017-05-10T08:44:35.121Z,1007.8
2017-05-10T08:45:46.142Z,1007.73
2017-05-10T08:46:57.370Z,1007.73
2017-05-10T08:48:08.390Z,1007.71
2017-05-10T08:49:19.413Z,1007.66
2017-05-10T08:50:30.444Z,1007.56
2017-05-10T08:51:41.529Z,1007.53
2017-05-10T08:52:52.745Z,1007.58
2017-05-10T08:54:03.980Z,1007.6
2017-05-10T08:55:15.000Z,1007.6
2017-05-10T08:56:26.022Z,1007.65
2017-05-10T08:57:37.051Z,1007.74
2017-05-10T08:58:48.274Z,1007.75
2017-05-10T08:59:59.292Z,1007.7
2017-05-10T09:01:10.315Z,1007.65
2017-05-10T09:02:21.399Z,1007.69
2017-05-10T09:03:32.630Z,1007.43
2017-05-10T09:04:43.658Z,1007.59
2017-05-10T09:05:54.691Z,1007.24
2017-05-10T09:07:05.716Z,1007.21
2017-05-10T09:08:16.741Z,1007.34
2017-05-10T09:09:27.768Z,1007.14
2017-05-10T09:10:38.791Z,1007.26
2017-05-10T09:11:49.809Z,1007.26
2017-05-10T09:13:00.876Z,1007.37
2017-05-10T09:14:12.104Z,1007.21
2017-05-10T09:15:23.329Z,1007.58
2017-05-10T09:16:34.360Z,1007.24
2017-05-10T09:17:45.379Z,1007.69
2017-05-10T09:18:56.450Z,1007.47
2017-05-10T09:20:07.477Z,1007.34
2017-05-10T09:21:18.489Z,1007.22
2017-05-10T09:22:29.511Z,1007.15
2017-05-10T09:23:40.531Z,1007.31
2017-05-10T09:24:51.757Z,1007.38
2017-05-10T09:26:02.978Z,1007.03
2017-05-10T09:27:13.995Z,1007
2017-05-10T09:28:25.035Z,1006.95
2017-05-10T09:29:36.065Z,1006.89
2017-05-10T09:30:47.083Z,1007.04
2017-05-10T09:31:58.108Z,1007.44
2017-05-10T09:33:09.332Z,1007.21
2017-05-10T09:34:20.343Z,1007.36
2017-05-10T09:35:31.421Z,1007.5
2017-05-10T09:36:42.643Z,1007.14
2017-05-10T09:37:53.652Z,1007.29
2017-05-10T09:39:04.864Z,1007.37
2017-05-10T09:40:16.085Z,1007.4
2017-05-10T09:41:27.108Z,1007.4
2017-05-10T09:42:38.133Z,1007.65
2017-05-10T09:43:49.163Z,1006.84
2017-05-10T09:45:00.226Z,1006.78
2017-05-10T09:46:11.235Z,1006.72
2017-05-10T09:47:22.259Z,1006.66
2017-05-10T09:48:33.283Z,1006.67
2017-05-10T09:49:44.504Z,1006.71
2017-05-10T09:50:55.579Z,1006.67
2017-05-10T09:52:06.586Z,1006.71
2017-05-10T09:53:17.795Z,1006.65
2017-05-10T09:54:28.806Z,1006.61
2017-05-10T09:55:40.032Z,1006.73
2017-05-10T09:56:51.059Z,1006.73
2017-05-10T09:58:02.078Z,1007.34
2017-05-10T09:59:13.111Z,1006.71
2017-05-10T10:00:24.176Z,1006.77
2017-05-10T10:01:35.394Z,1008.53
2017-05-10T10:02:46.623Z,1009.98
2017-05-10T10:03:57.639Z,1007.03
2017-05-10T10:05:08.656Z,1006.8
2017-05-10T10:06:19.683Z,1008.92
2017-05-10T10:07:30.900Z,1007.6
2017-05-10T10:08:41.915Z,1010.07
2017-05-10T10:09:52.931Z,1010.85
2017-05-10T10:11:03.991Z,1008.71
2017-05-10T10:12:15.216Z,1010.89
2017-05-10T10:13:26.250Z,1007.42
2017-05-10T10:14:37.268Z,1009.36
2017-05-10T10:15:48.328Z,1011.38
2017-05-10T10:16:59.542Z,1006.92
2017-05-10T10:18:10.578Z,1011.15
2017-05-10T10:19:21.603Z,1007.93
2017-05-10T10:20:32.616Z,1006.63
2017-05-10T10:21:43.887Z,1006.53
2017-05-10T10:22:55.117Z,1006.55
2017-05-10T10:24:06.337Z,1006.46
2017-05-10T10:25:17.363Z,1006.45
2017-05-10T10:26:28.372Z,1006.38
2017-05-10T10:27:39.388Z,1006.39
2017-05-10T10:28:50.402Z,1006.33
2017-05-10T10:30:01.403Z,1006.41
2017-05-10T10:31:12.615Z,1008.9
2017-05-10T10:32:23.834Z,1009.56
2017-05-10T10:33:34.853Z,1009.32
2017-05-10T10:34:45.870Z,1006.61
2017-05-10T10:35:56.889Z,1006.54
2017-05-10T10:37:07.911Z,1006.52
2017-05-10T10:38:18.924Z,1006.59
2017-05-10T10:39:30.004Z,1006.52
2017-05-10T10:40:41.025Z,1006.42
2017-05-10T10:41:52.048Z,1006.43
2017-05-10T10:43:03.067Z,1006.45
2017-05-10T10:44:14.289Z,1006.47
2017-05-10T10:45:25.305Z,1006.9
2017-05-10T10:46:36.313Z,1008.07
2017-05-10T10:47:47.326Z,1006.7
2017-05-10T10:48:58.395Z,1006.46
2017-05-10T10:50:09.415Z,1007.46
2017-05-10T10:51:20.432Z,1006.81
2017-05-10T10:52:31.455Z,1006.79
2017-05-10T10:53:42.675Z,1007.53
2017-05-10T10:54:53.904Z,1007.45
2017-05-10T10:56:04.929Z,1007.55
2017-05-10T10:57:15.953Z,1007.66
2017-05-10T10:58:26.980Z,1007.68
2017-05-10T10:59:38.053Z,1007.68
2017-05-10T11:00:49.076Z,1007.7
2017-05-10T11:02:00.104Z,1007.61
2017-05-10T11:03:11.121Z,1007.1
2017-05-10T11:04:22.139Z,1007.63
2017-05-10T11:05:33.161Z,1007.9
2017-05-10T11:06:44.178Z,1007.91
2017-05-10T11:07:55.202Z,1007.83
2017-05-10T11:09:06.217Z,1006.01
2017-05-10T11:10:17.235Z,1006.02
2017-05-10T11:11:28.260Z,1006.1
2017-05-10T11:12:39.279Z,1006.05
2017-05-10T11:13:50.507Z,1005.94
2017-05-10T11:15:01.720Z,1005.95
2017-05-10T11:16:12.790Z,1005.85
2017-05-10T11:17:23.811Z,1005.85
2017-05-10T11:18:34.832Z,1005.89
2017-05-10T11:19:45.848Z,1005.88
2017-05-10T11:20:56.909Z,1008.78
2017-05-10T11:22:08.142Z,1008.51
2017-05-10T11:23:19.163Z,1006.38
2017-05-10T11:24:30.177Z,1008.17
2017-05-10T11:25:41.401Z,1006.14
2017-05-10T11:26:53.079Z,1006.83
2017-05-10T11:28:04.103Z,1005.97
2017-05-10T11:29:15.119Z,1005.94
2017-05-10T11:30:26.127Z,1005.92
2017-05-10T11:31:37.149Z,1005.89
2017-05-10T11:32:48.388Z,1005.88
2017-05-10T11:33:59.401Z,1005.84
2017-05-10T11:35:10.627Z,1005.88
2017-05-10T11:36:21.652Z,1005.95
2017-05-10T11:37:32.869Z,1005.96
2017-05-10T11:38:43.928Z,1005.98
2017-05-10T11:39:54.944Z,1005.96
2017-05-10T11:41:06.169Z,1006.03
2017-05-10T11:42:17.178Z,1005.98
2017-05-10T11:43:28.194Z,1006.01
2017-05-10T11:44:39.262Z,1006
2017-05-10T11:45:50.299Z,1005.93
2017-05-10T11:47:01.315Z,1005.81
2017-05-10T11:48:12.381Z,1005.73
2017-05-10T11:49:23.412Z,1005.75
2017-05-10T11:50:34.431Z,1005.69
2017-05-10T11:51:45.656Z,1005.66
2017-05-10T11:52:56.701Z,1005.65
2017-05-10T11:54:07.731Z,1005.49
2017-05-10T11:55:18.790Z,1005.45
2017-05-10T11:56:29.803Z,1005.57
2017-05-10T11:57:40.826Z,1005.59
2017-05-10T11:58:51.888Z,1005.51
2017-05-10T12:00:02.895Z,1005.51
2017-05-10T12:01:13.940Z,1005.52
2017-05-10T12:02:24.968Z,1005.5
2017-05-10T12:03:35.988Z,1005.53
2017-05-10T12:04:47.025Z,1005.45
2017-05-10T12:05:58.048Z,1005.41
2017-05-10T12:07:09.068Z,1005.46
2017-05-10T12:08:20.096Z,1005.5
2017-05-10T12:09:31.167Z,1005.45
2017-05-10T12:10:42.184Z,1005.53
2017-05-10T12:11:53.189Z,1005.42
2017-05-10T12:13:04.407Z,1005.43
2017-05-10T12:14:15.824Z,1005.49
2017-05-10T12:15:26.838Z,1005.44
2017-05-10T12:16:37.848Z,1005.45
2017-05-10T12:17:48.868Z,1005.48
2017-05-10T12:19:00.094Z,1005.49
2017-05-10T12:20:11.115Z,1005.54
2017-05-10T12:21:22.323Z,1005.45
2017-05-10T12:22:33.350Z,1005.36
2017-05-10T12:23:44.364Z,1005.51
2017-05-10T12:24:55.381Z,1005.52
2017-05-10T12:26:06.653Z,1005.46
2017-05-10T12:27:17.683Z,1005.44
2017-05-10T12:28:28.706Z,1005.37
2017-05-10T12:29:39.930Z,1005.29
2017-05-10T12:30:51.212Z,1005.29
2017-05-10T12:32:02.441Z,1005.27
2017-05-10T12:33:13.454Z,1005.26
2017-05-10T12:34:24.698Z,1005.24
2017-05-10T12:35:35.721Z,1005.26
2017-05-10T12:36:46.738Z,1005.21
2017-05-10T12:37:57.749Z,1005.22
2017-05-10T12:39:08.766Z,1005.21
2017-05-10T12:40:19.984Z,1005.16
2017-05-10T12:41:31.008Z,1005.2
2017-05-10T12:42:42.044Z,1005.21
2017-05-10T12:43:53.063Z,1005.17
2017-05-10T12:45:04.078Z,1005.17
2017-05-10T12:46:15.097Z,1005.11
2017-05-10T12:47:26.130Z,1005.06
2017-05-10T12:48:37.243Z,1005.02
2017-05-10T12:49:48.262Z,1005.01
2017-05-10T12:50:59.297Z,1004.99
2017-05-10T12:52:10.322Z,1004.94
2017-05-10T12:53:21.340Z,1004.96
2017-05-10T12:54:32.369Z,1004.88
2017-05-10T12:55:43.390Z,1004.88
2017-05-10T12:56:54.415Z,1004.87
2017-05-10T12:58:05.509Z,1004.85
2017-05-10T12:59:16.530Z,1004.82
2017-05-10T13:00:27.569Z,1004.8
2017-05-10T13:01:38.782Z,1004.76
2017-05-10T13:02:49.800Z,1004.74
2017-05-10T13:04:00.804Z,1004.74
2017-05-10T13:05:11.815Z,1004.75
2017-05-10T13:06:22.826Z,1004.74
2017-05-10T13:07:33.855Z,1004.7
2017-05-10T13:08:44.957Z,1004.7
2017-05-10T13:09:55.977Z,1004.67
2017-05-10T13:11:06.996Z,1004.67
2017-05-10T13:12:18.003Z,1004.65
2017-05-10T13:13:29.035Z,1004.69
2017-05-10T13:14:40.058Z,1004.7
2017-05-10T13:15:51.073Z,1004.7
2017-05-10T13:17:02.092Z,1004.62
2017-05-10T13:18:13.104Z,1004.55
2017-05-10T13:19:24.370Z,1004.58
2017-05-10T13:20:35.401Z,1004.53
2017-05-10T13:21:46.424Z,1004.5
2017-05-10T13:22:57.640Z,1004.49
2017-05-10T13:24:09.060Z,1004.47
2017-05-10T13:25:20.077Z,1004.49
2017-05-10T13:26:31.098Z,1004.47
2017-05-10T13:27:42.110Z,1004.43
2017-05-10T13:28:53.137Z,1004.42
2017-05-10T13:30:04.133Z,1004.41
2017-05-10T13:31:15.151Z,1004.41
2017-05-10T13:32:26.165Z,1004.4
2017-05-10T13:33:37.191Z,1004.44
2017-05-10T13:34:48.198Z,1004.37
2017-05-10T13:35:59.409Z,1004.35
2017-05-10T13:37:10.422Z,1004.31
2017-05-10T13:38:21.431Z,1004.31
2017-05-10T13:39:32.649Z,1004.26
2017-05-10T13:40:43.678Z,1004.25
2017-05-10T13:41:54.891Z,1004.26
2017-05-10T13:43:05.905Z,1004.28
2017-05-10T13:44:16.928Z,1004.27
2017-05-10T13:45:27.940Z,1004.22
2017-05-10T13:46:38.950Z,1004.19
2017-05-10T13:47:50.001Z,1004.2
2017-05-10T13:49:01.025Z,1004.19
2017-05-10T13:50:12.036Z,1004.23
2017-05-10T13:51:23.043Z,1004.17
2017-05-10T13:52:34.057Z,1004.26
2017-05-10T13:53:45.055Z,1004.16
2017-05-10T13:54:56.073Z,1004.16
2017-05-10T13:56:07.088Z,1004.16
2017-05-10T13:57:18.155Z,1004.15
2017-05-10T13:58:29.170Z,1004.12
2017-05-10T13:59:40.190Z,1004.11
2017-05-10T14:00:51.197Z,1004.08
2017-05-10T14:02:02.405Z,1004.06
2017-05-10T14:03:13.621Z,1004.06
2017-05-10T14:04:24.632Z,1004.04
2017-05-10T14:05:35.651Z,1004.04
2017-05-10T14:06:46.650Z,1004.01
2017-05-10T14:07:57.710Z,1003.99
2017-05-10T14:09:08.730Z,1003.95
2017-05-10T14:10:19.751Z,1003.93
2017-05-10T14:11:30.785Z,1003.96
2017-05-10T14:12:41.815Z,1003.93
2017-05-10T14:13:52.823Z,1003.92
2017-05-10T14:15:03.847Z,1003.92
2017-05-10T14:16:15.065Z,1003.87
2017-05-10T14:17:26.293Z,1003.88
2017-05-10T14:18:37.550Z,1003.88
2017-05-10T14:19:48.568Z,1003.91
2017-05-10T14:20:59.586Z,1003.88
2017-05-10T14:22:10.597Z,1003.82
2017-05-10T14:23:21.606Z,1003.79